Time;durP1;ratioP1;P1;durP2;ratioP2;P2;SDS_P1;SDS_P2;PMS_P1;PMS_P2;Temp;Humidity;BMP_temperature;BMP_pressure;BME280_temperature;BME280_humidity;BME280_pressure;Samples;Min_cycle;Max_cycle;Signal;HPM_P1;HPM_P2
2023/08/02 00:00:22;;;;;;;2.10;1.15;;;24.30;50.20;;;;;;4986633;28;20046;-63
2023/08/02 00:02:48;;;;;;;2.25;1.10;;;24.30;50.20;;;;;;4985560;28;20045;-61
2023/08/02 00:05:14;;;;;;;2.88;1.13;;;24.30;50.30;;;;;;4989414;28;20044;-61
2023/08/02 00:07:40;;;;;;;2.97;1.02;;;24.30;50.30;;;;;;4983745;28;20295;-62
2023/08/02 00:10:06;;;;;;;2.30;1.05;;;24.30;50.30;;;;;;4985656;28;20053;-61
2023/08/02 00:12:32;;;;;;;2.78;1.23;;;24.30;50.50;;;;;;4983532;28;20097;-63
2023/08/02 00:14:57;;;;;;;2.22;1.15;;;24.30;50.30;;;;;;4987744;28;20390;-61
2023/08/02 00:17:23;;;;;;;2.08;0.95;;;24.30;50.30;;;;;;4987455;28;20034;-62
2023/08/02 00:19:49;;;;;;;1.85;0.82;;;24.30;50.30;;;;;;4990983;28;20030;-61
2023/08/02 00:22:15;;;;;;;1.30;0.90;;;24.30;50.40;;;;;;4990668;28;20457;-61
2023/08/02 00:24:41;;;;;;;2.50;1.08;;;24.30;50.40;;;;;;4990108;28;20065;-63
2023/08/02 00:27:07;;;;;;;2.67;1.10;;;24.30;50.40;;;;;;4989823;28;20050;-62
2023/08/02 00:29:32;;;;;;;2.75;1.23;;;24.30;50.40;;;;;;4983744;28;20030;-61
2023/08/02 00:31:58;;;;;;;2.63;1.05;;;24.30;50.50;;;;;;4971856;28;20069;-62
2023/08/02 00:34:24;;;;;;;4.63;1.20;;;24.30;50.60;;;;;;4989343;28;20037;-62
2023/08/02 00:36:50;;;;;;;2.88;1.02;;;24.30;50.60;;;;;;4989056;28;20022;-62
2023/08/02 00:39:18;;;;;;;2.05;0.90;;;24.20;50.60;;;;;;4987973;28;20117;-61
2023/08/02 00:41:44;;;;;;;1.48;0.75;;;24.20;50.60;;;;;;4986109;28;20108;-61
2023/08/02 00:44:10;;;;;;;2.42;1.02;;;24.20;50.60;;;;;;5001422;28;20038;-62
2023/08/02 00:46:36;;;;;;;2.05;0.93;;;24.20;50.70;;;;;;4984052;28;20050;-62
2023/08/02 00:49:02;;;;;;;3.08;1.02;;;24.20;50.70;;;;;;4981083;28;20026;-63
2023/08/02 00:51:30;;;;;;;2.28;0.95;;;24.20;50.70;;;;;;4987497;28;20442;-62
2023/08/02 00:53:56;;;;;;;2.33;0.93;;;24.20;50.70;;;;;;4983383;28;20093;-62
2023/08/02 00:56:22;;;;;;;3.40;1.23;;;24.20;50.70;;;;;;4982557;28;20034;-63
2023/08/02 00:58:49;;;;;;;2.13;0.85;;;24.20;50.80;;;;;;4986760;28;20038;-64
2023/08/02 01:01:16;;;;;;;1.75;0.93;;;24.20;50.80;;;;;;4983911;28;20092;-61
2023/08/02 01:03:45;;;;;;;3.10;1.33;;;24.20;50.80;;;;;;4982162;28;20030;-62
2023/08/02 01:06:23;;;;;;;2.05;1.10;;;24.20;50.80;;;;;;4985697;28;20093;-62
2023/08/02 01:09:01;;;;;;;2.97;1.00;;;24.20;50.80;;;;;;4982897;28;20026;-62
2023/08/02 01:11:44;;;;;;;2.55;1.23;;;24.20;50.90;;;;;;4984108;28;20141;-61
2023/08/02 01:14:16;;;;;;;3.03;1.25;;;24.20;50.90;;;;;;4982800;28;20131;-60
2023/08/02 01:16:44;;;;;;;2.90;1.05;;;24.20;50.90;;;;;;4981654;28;20417;-61
2023/08/02 01:19:11;;;;;;;2.10;0.98;;;24.20;51.60;;;;;;4984997;28;20117;-62
2023/08/02 01:21:38;;;;;;;2.97;1.25;;;24.20;51.00;;;;;;4982717;28;20097;-62
2023/08/02 01:24:05;;;;;;;2.90;1.40;;;24.20;51.00;;;;;;4984116;28;20022;-59
2023/08/02 01:26:32;;;;;;;1.75;0.98;;;24.10;51.00;;;;;;4984594;28;20062;-60
2023/08/02 01:29:03;;;;;;;3.00;1.20;;;24.10;51.00;;;;;;4982860;28;20026;-61
2023/08/02 01:31:32;;;;;;;3.38;1.35;;;24.10;51.10;;;;;;4987211;28;20125;-62
2023/08/02 01:33:59;;;;;;;3.50;1.30;;;24.10;51.10;;;;;;4984156;28;20018;-62
2023/08/02 01:36:25;;;;;;;3.55;1.20;;;24.10;51.10;;;;;;4984196;28;20071;-60
2023/08/02 01:38:52;;;;;;;2.72;1.15;;;24.10;51.10;;;;;;4983850;28;20036;-61
2023/08/02 01:41:18;;;;;;;1.90;0.95;;;24.10;51.20;;;;;;4985333;28;20041;-62
2023/08/02 01:43:43;;;;;;;2.95;1.30;;;24.10;51.30;;;;;;4983136;28;20031;-60
2023/08/02 01:46:09;;;;;;;3.75;1.52;;;24.10;51.30;;;;;;4985669;28;20096;-60
2023/08/02 01:48:35;;;;;;;2.85;1.10;;;24.10;51.30;;;;;;4982421;28;20053;-60
2023/08/02 01:51:01;;;;;;;3.92;1.25;;;24.10;51.30;;;;;;4986082;28;20050;-61
2023/08/02 01:53:27;;;;;;;3.97;1.40;;;24.10;51.30;;;;;;4983934;28;20485;-61
2023/08/02 01:55:53;;;;;;;2.42;1.05;;;24.10;51.30;;;;;;4983600;28;20033;-60
2023/08/02 01:58:19;;;;;;;3.25;1.33;;;24.10;51.40;;;;;;4984132;28;20056;-62
2023/08/02 02:00:46;;;;;;;3.03;1.05;;;24.10;51.40;;;;;;4984545;28;20351;-61
2023/08/02 02:03:12;;;;;;;1.88;0.93;;;24.10;51.40;;;;;;4981371;28;20030;-61
2023/08/02 02:05:38;;;;;;;3.08;1.33;;;24.10;51.40;;;;;;4985344;28;20418;-61
2023/08/02 02:08:04;;;;;;;4.28;1.30;;;24.00;51.40;;;;;;4981837;28;20053;-62
2023/08/02 02:10:31;;;;;;;2.35;1.10;;;24.00;51.40;;;;;;4982895;28;20049;-61
2023/08/02 02:12:57;;;;;;;3.28;1.50;;;24.10;52.20;;;;;;4987570;28;20030;-62
2023/08/02 02:15:23;;;;;;;1.98;1.00;;;24.10;51.60;;;;;;4987852;28;20102;-63
2023/08/02 02:17:48;;;;;;;2.65;1.25;;;24.00;51.50;;;;;;4982294;28;20083;-60
2023/08/02 02:20:14;;;;;;;3.03;1.40;;;24.00;51.60;;;;;;4987997;28;20439;-60
2023/08/02 02:22:40;;;;;;;2.95;1.38;;;24.00;51.60;;;;;;4987665;28;20042;-62
2023/08/02 02:25:06;;;;;;;2.80;1.30;;;24.00;51.60;;;;;;4988809;28;20101;-62
2023/08/02 02:27:32;;;;;;;2.42;1.20;;;24.00;51.70;;;;;;4985954;28;20088;-60
2023/08/02 02:29:58;;;;;;;3.20;1.10;;;24.00;51.70;;;;;;4986279;28;20030;-62
2023/08/02 02:32:24;;;;;;;2.05;1.00;;;24.00;51.70;;;;;;4990827;28;20045;-61
2023/08/02 02:34:50;;;;;;;1.88;0.90;;;24.00;51.70;;;;;;4990018;28;20072;-61
2023/08/02 02:37:16;;;;;;;3.15;1.25;;;24.00;51.70;;;;;;4992619;28;20026;-62
2023/08/02 02:39:42;;;;;;;3.63;1.33;;;24.00;51.80;;;;;;4992356;28;20034;-61
2023/08/02 02:42:08;;;;;;;3.38;1.33;;;24.00;51.80;;;;;;4989632;28;20057;-62
2023/08/02 02:44:41;;;;;;;2.53;1.00;;;24.00;51.80;;;;;;4987412;28;20154;-63
2023/08/02 02:47:08;;;;;;;3.50;1.35;;;24.00;51.80;;;;;;4982725;28;20027;-62
2023/08/02 02:49:34;;;;;;;2.38;1.00;;;24.00;51.80;;;;;;4986928;28;20421;-61
2023/08/02 02:52:00;;;;;;;2.13;1.05;;;24.00;51.90;;;;;;4989050;28;20038;-60
2023/08/02 02:54:26;;;;;;;2.40;1.17;;;24.00;52.00;;;;;;4986073;28;20036;-61
2023/08/02 02:56:52;;;;;;;2.72;1.20;;;24.00;52.00;;;;;;4987287;28;20038;-62
2023/08/02 02:59:18;;;;;;;1.40;0.70;;;23.90;52.00;;;;;;4998574;28;20065;-60
2023/08/02 03:01:44;;;;;;;2.42;0.90;;;23.90;52.00;;;;;;4987160;28;20026;-60
2023/08/02 03:04:10;;;;;;;1.75;0.90;;;23.90;52.00;;;;;;4987870;28;20061;-62
2023/08/02 03:06:36;;;;;;;3.83;0.88;;;24.00;52.10;;;;;;4988272;28;20034;-60
2023/08/02 03:09:02;;;;;;;1.95;1.30;;;23.90;52.10;;;;;;4985630;28;20026;-61
2023/08/02 03:11:28;;;;;;;2.03;1.08;;;24.00;52.20;;;;;;4987143;28;20141;-61
2023/08/02 03:13:54;;;;;;;2.05;1.13;;;23.90;52.10;;;;;;4987502;28;20109;-59
2023/08/02 03:16:20;;;;;;;2.65;1.27;;;23.90;52.00;;;;;;4986603;28;20042;-61
2023/08/02 03:18:46;;;;;;;1.83;1.00;;;24.00;52.20;;;;;;4985559;28;20430;-59
2023/08/02 03:21:12;;;;;;;1.83;0.88;;;23.90;52.20;;;;;;4987359;28;20027;-60
2023/08/02 03:23:37;;;;;;;2.10;1.00;;;23.90;52.20;;;;;;4985695;28;20033;-60
2023/08/02 03:26:03;;;;;;;2.05;0.90;;;23.90;52.30;;;;;;4985251;28;20031;-61
2023/08/02 03:28:29;;;;;;;1.85;1.02;;;23.90;52.30;;;;;;4987234;28;20130;-60
2023/08/02 03:30:55;;;;;;;2.03;0.90;;;23.90;52.30;;;;;;4987944;28;20057;-61
2023/08/02 03:33:21;;;;;;;1.95;0.82;;;23.90;52.40;;;;;;4985398;28;20428;-60
2023/08/02 03:35:47;;;;;;;2.45;1.02;;;23.90;52.30;;;;;;4986853;28;20110;-61
2023/08/02 03:38:13;;;;;;;2.80;1.02;;;23.90;52.40;;;;;;4986542;28;20449;-61
2023/08/02 03:40:39;;;;;;;2.10;0.90;;;23.90;52.40;;;;;;4987170;28;20117;-61
2023/08/02 03:43:05;;;;;;;2.38;1.10;;;23.90;52.40;;;;;;4987719;28;20136;-63
2023/08/02 03:45:31;;;;;;;1.92;1.17;;;23.80;52.40;;;;;;4985026;28;20513;-61
2023/08/02 03:47:57;;;;;;;1.25;1.02;;;23.80;52.40;;;;;;4984971;28;20030;-61
2023/08/02 03:50:22;;;;;;;1.85;0.93;;;23.90;52.40;;;;;;4988223;28;20078;-61
2023/08/02 03:52:49;;;;;;;2.10;0.98;;;23.90;52.50;;;;;;4987045;28;20294;-61
2023/08/02 03:55:15;;;;;;;1.52;0.90;;;23.90;52.50;;;;;;4984877;28;20030;-61
2023/08/02 03:57:41;;;;;;;1.60;0.80;;;23.80;52.50;;;;;;4986616;28;20023;-60
2023/08/02 04:00:08;;;;;;;2.55;1.20;;;23.80;52.50;;;;;;4981546;28;20041;-61
2023/08/02 04:02:38;;;;;;;2.08;1.05;;;23.80;52.50;;;;;;4985720;28;20105;-60
2023/08/02 04:05:04;;;;;;;2.65;1.25;;;23.80;52.50;;;;;;4985304;28;20034;-61
2023/08/02 04:07:30;;;;;;;1.50;0.82;;;23.80;52.60;;;;;;4985371;28;20157;-60
2023/08/02 04:09:55;;;;;;;1.02;0.90;;;23.80;52.60;;;;;;4986822;28;20089;-61
2023/08/02 04:12:22;;;;;;;2.47;1.10;;;23.80;52.60;;;;;;4990233;28;20042;-61
2023/08/02 04:14:47;;;;;;;1.50;0.70;;;23.80;52.70;;;;;;4988856;28;20399;-61
2023/08/02 04:17:13;;;;;;;2.10;1.08;;;23.80;52.70;;;;;;5003614;28;20185;-61
2023/08/02 04:19:40;;;;;;;1.95;0.90;;;23.80;52.70;;;;;;4987847;28;20129;-62
2023/08/02 04:22:06;;;;;;;1.63;0.88;;;23.80;52.80;;;;;;4989075;28;20153;-60
2023/08/02 04:24:33;;;;;;;4.50;1.20;;;23.80;52.70;;;;;;4989325;28;20038;-59
2023/08/02 04:26:58;;;;;;;2.50;1.00;;;23.80;52.80;;;;;;4989436;28;20041;-60
2023/08/02 04:29:24;;;;;;;1.92;1.00;;;23.80;52.80;;;;;;4989542;28;20034;-63
2023/08/02 04:31:50;;;;;;;2.03;0.90;;;23.80;52.80;;;;;;4988414;28;20469;-61
2023/08/02 04:34:16;;;;;;;2.05;1.35;;;23.80;52.90;;;;;;4988129;28;20100;-61
2023/08/02 04:36:42;;;;;;;2.50;1.00;;;23.80;52.90;;;;;;4988501;28;20057;-60
2023/08/02 04:39:08;;;;;;;1.50;1.08;;;23.80;52.90;;;;;;4985220;28;20030;-61
2023/08/02 04:41:34;;;;;;;1.45;0.70;;;23.80;53.10;;;;;;4986324;28;20121;-60
2023/08/02 04:44:00;;;;;;;1.77;0.90;;;23.80;53.10;;;;;;4983703;28;20026;-61
2023/08/02 04:46:29;;;;;;;1.98;1.00;;;23.80;53.10;;;;;;4984605;28;20582;-61
2023/08/02 04:48:56;;;;;;;2.83;1.13;;;23.80;53.10;;;;;;4985378;28;20462;-61
2023/08/02 04:51:21;;;;;;;2.88;1.33;;;23.80;53.20;;;;;;4985707;28;20121;-61
2023/08/02 04:53:48;;;;;;;1.60;1.10;;;23.80;53.20;;;;;;4984476;28;20102;-61
2023/08/02 04:56:15;;;;;;;1.88;0.93;;;23.80;53.20;;;;;;4979671;28;20110;-60
2023/08/02 04:58:41;;;;;;;1.67;0.98;;;23.80;53.20;;;;;;4985108;28;20105;-59
2023/08/02 05:01:07;;;;;;;1.33;0.80;;;23.80;53.20;;;;;;4983926;28;20054;-60
2023/08/02 05:03:34;;;;;;;1.40;0.93;;;23.80;53.20;;;;;;4983854;28;20124;-60
2023/08/02 05:06:01;;;;;;;2.08;0.95;;;23.80;53.20;;;;;;4986975;28;20037;-61
2023/08/02 05:08:32;;;;;;;1.98;1.00;;;23.80;53.20;;;;;;4981546;28;20049;-61
2023/08/02 05:10:58;;;;;;;2.47;1.10;;;23.80;53.30;;;;;;4983563;28;20948;-61
2023/08/02 05:13:25;;;;;;;1.33;0.85;;;23.80;53.30;;;;;;4982116;28;20034;-60
2023/08/02 05:15:53;;;;;;;1.38;1.05;;;23.80;53.30;;;;;;4983063;28;20031;-60
2023/08/02 05:18:19;;;;;;;1.60;0.90;;;23.80;53.30;;;;;;4981768;28;20089;-60
2023/08/02 05:20:45;;;;;;;1.73;0.80;;;23.80;53.30;;;;;;4985994;28;20129;-61
2023/08/02 05:23:11;;;;;;;1.45;1.00;;;23.80;53.40;;;;;;4984833;28;20057;-63
2023/08/02 05:25:37;;;;;;;1.35;0.85;;;23.80;53.40;;;;;;4984270;28;20030;-60
2023/08/02 05:28:03;;;;;;;1.88;1.08;;;23.80;53.40;;;;;;4982515;28;20049;-60
2023/08/02 05:30:30;;;;;;;1.58;0.77;;;23.80;53.40;;;;;;4984391;28;20049;-59
2023/08/02 05:32:56;;;;;;;2.15;1.10;;;23.80;53.40;;;;;;4984999;28;20040;-62
2023/08/02 05:35:23;;;;;;;1.52;1.05;;;23.80;53.40;;;;;;4984213;28;20023;-61
2023/08/02 05:37:50;;;;;;;2.60;1.42;;;23.80;53.50;;;;;;4984606;28;20083;-60
2023/08/02 05:40:16;;;;;;;2.70;1.13;;;23.80;53.50;;;;;;4984370;28;20169;-60
2023/08/02 05:42:41;;;;;;;1.45;0.88;;;23.80;53.50;;;;;;4985332;28;20030;-59
2023/08/02 05:45:09;;;;;;;2.40;1.10;;;23.80;53.50;;;;;;4984290;28;20116;-60
2023/08/02 05:47:35;;;;;;;1.52;1.00;;;23.80;53.50;;;;;;4983182;28;20279;-59
2023/08/02 05:50:02;;;;;;;2.17;1.13;;;23.70;53.50;;;;;;4982301;28;20034;-60
2023/08/02 05:52:28;;;;;;;1.60;0.77;;;23.80;53.50;;;;;;4982576;28;20124;-61
2023/08/02 05:54:55;;;;;;;2.05;1.17;;;23.80;53.60;;;;;;4985106;28;20326;-61
2023/08/02 05:57:20;;;;;;;4.53;1.50;;;23.80;53.60;;;;;;4982964;28;20043;-61
2023/08/02 05:59:49;;;;;;;2.97;1.40;;;23.80;53.60;;;;;;4984319;28;20132;-62
2023/08/02 06:02:15;;;;;;;2.65;1.33;;;23.80;53.60;;;;;;4983412;28;20037;-61
2023/08/02 06:04:43;;;;;;;2.83;1.23;;;23.80;53.60;;;;;;4985044;28;20679;-61
2023/08/02 06:07:09;;;;;;;2.72;1.30;;;23.80;53.60;;;;;;4987195;28;20062;-60
2023/08/02 06:09:35;;;;;;;2.10;1.10;;;23.80;53.70;;;;;;4988633;28;20048;-61
2023/08/02 06:12:02;;;;;;;2.28;0.98;;;23.80;53.70;;;;;;4988576;28;20100;-61
2023/08/02 06:14:28;;;;;;;4.28;1.15;;;23.80;53.70;;;;;;4990427;28;20034;-62
2023/08/02 06:16:54;;;;;;;3.20;1.13;;;23.80;53.80;;;;;;4986839;28;20030;-62
2023/08/02 06:19:19;;;;;;;1.42;1.10;;;23.70;53.70;;;;;;4987102;28;20117;-61
2023/08/02 06:21:45;;;;;;;1.95;0.98;;;23.80;53.80;;;;;;4985442;28;20057;-60
2023/08/02 06:24:11;;;;;;;2.00;1.00;;;23.80;53.80;;;;;;4986376;28;20181;-59
2023/08/02 06:26:37;;;;;;;1.83;1.10;;;23.70;53.80;;;;;;4987227;28;20042;-61
2023/08/02 06:29:06;;;;;;;2.13;1.05;;;23.80;53.90;;;;;;4986828;28;20069;-61
2023/08/02 06:31:32;;;;;;;2.25;1.00;;;23.70;53.90;;;;;;4987645;28;20054;-62
2023/08/02 06:33:58;;;;;;;2.33;1.00;;;23.70;53.90;;;;;;4985578;28;20046;-62
2023/08/02 06:36:24;;;;;;;2.42;1.23;;;23.80;54.00;;;;;;4987777;28;20076;-61
2023/08/02 06:38:50;;;;;;;3.08;1.10;;;23.80;54.10;;;;;;4987947;28;20023;-61
2023/08/02 06:41:16;;;;;;;3.58;1.20;;;23.70;54.10;;;;;;4988671;28;20022;-61
2023/08/02 06:43:42;;;;;;;2.42;1.13;;;23.80;54.20;;;;;;4986131;28;20537;-62
2023/08/02 06:46:07;;;;;;;1.50;0.85;;;23.70;54.30;;;;;;4986787;28;20098;-61
2023/08/02 06:48:33;;;;;;;1.90;1.20;;;23.80;54.50;;;;;;4986848;28;20155;-62
2023/08/02 06:51:00;;;;;;;1.80;0.98;;;23.70;54.50;;;;;;4992332;28;20148;-61
2023/08/02 06:53:26;;;;;;;2.97;1.58;;;23.80;54.50;;;;;;4986374;28;20030;-61
2023/08/02 06:55:52;;;;;;;2.53;1.17;;;23.80;54.50;;;;;;4989255;28;20045;-61
2023/08/02 06:58:18;;;;;;;1.08;0.98;;;23.80;54.60;;;;;;4986141;28;20117;-61
2023/08/02 07:00:44;;;;;;;2.13;1.23;;;23.70;54.60;;;;;;4987363;28;20040;-61
2023/08/02 07:03:09;;;;;;;1.55;1.05;;;23.80;54.70;;;;;;4988653;28;20042;-62
2023/08/02 07:05:37;;;;;;;1.67;1.20;;;23.70;54.70;;;;;;4986727;28;20090;-62
2023/08/02 07:08:03;;;;;;;3.30;1.10;;;23.80;54.70;;;;;;4988818;28;20465;-62
2023/08/02 07:10:30;;;;;;;2.83;1.17;;;23.70;54.70;;;;;;4990674;28;20046;-59
2023/08/02 07:12:57;;;;;;;1.63;1.10;;;23.80;54.80;;;;;;4984930;28;20101;-61
2023/08/02 07:15:23;;;;;;;2.15;1.20;;;23.70;54.80;;;;;;4987983;28;20042;-61
2023/08/02 07:17:49;;;;;;;1.55;0.95;;;23.80;54.90;;;;;;4984106;28;20034;-62
2023/08/02 07:20:15;;;;;;;8.45;1.30;;;23.80;54.90;;;;;;4986129;28;20115;-62
2023/08/02 07:22:44;;;;;;;1.48;1.00;;;23.80;54.90;;;;;;4986747;28;20035;-61
2023/08/02 07:25:10;;;;;;;1.95;1.00;;;23.80;54.90;;;;;;4985853;28;20027;-61
2023/08/02 07:27:37;;;;;;;3.22;1.30;;;23.80;55.00;;;;;;4985948;28;20022;-60
2023/08/02 07:30:04;;;;;;;2.45;1.00;;;23.80;55.00;;;;;;4986106;28;20034;-62
2023/08/02 07:32:33;;;;;;;2.00;1.15;;;23.80;55.00;;;;;;4982348;28;20113;-61
2023/08/02 07:34:59;;;;;;;1.98;1.10;;;23.70;55.00;;;;;;4986209;28;20077;-63
2023/08/02 07:37:25;;;;;;;1.95;1.20;;;23.70;55.00;;;;;;4988340;28;20042;-61
2023/08/02 07:39:51;;;;;;;1.45;1.00;;;23.80;55.10;;;;;;4983220;28;20038;-61
2023/08/02 07:42:17;;;;;;;1.58;0.98;;;23.80;55.10;;;;;;4988599;28;20094;-62
2023/08/02 07:44:43;;;;;;;1.42;1.00;;;23.80;55.10;;;;;;4992796;28;20037;-61
2023/08/02 07:47:10;;;;;;;1.48;0.90;;;23.80;55.20;;;;;;4992349;28;20038;-62
2023/08/02 07:49:36;;;;;;;2.28;0.95;;;23.80;55.20;;;;;;4980336;28;20026;-62
2023/08/02 07:52:02;;;;;;;2.00;0.90;;;23.80;55.20;;;;;;4990781;28;20052;-63
2023/08/02 07:54:28;;;;;;;1.17;0.77;;;23.80;55.30;;;;;;4994864;28;20065;-61
2023/08/02 07:56:54;;;;;;;2.10;1.00;;;23.80;55.30;;;;;;4987705;28;20396;-61
2023/08/02 07:59:20;;;;;;;3.25;1.00;;;23.80;55.30;;;;;;4989029;28;20438;-62
2023/08/02 08:01:46;;;;;;;1.98;1.00;;;23.80;55.40;;;;;;4990540;28;20026;-62
2023/08/02 08:04:12;;;;;;;1.45;0.80;;;23.80;55.40;;;;;;4990515;28;20073;-60
2023/08/02 08:06:38;;;;;;;1.58;1.10;;;23.80;55.50;;;;;;4987867;28;20063;-60
2023/08/02 08:09:04;;;;;;;3.03;1.10;;;23.80;55.50;;;;;;4986961;28;20686;-62
2023/08/02 08:11:30;;;;;;;1.23;0.77;;;23.80;55.60;;;;;;4989768;28;20057;-62
2023/08/02 08:13:56;;;;;;;1.65;0.80;;;23.80;55.60;;;;;;4993188;28;20026;-61
2023/08/02 08:16:22;;;;;;;2.40;0.80;;;23.80;55.60;;;;;;4992634;28;20104;-61
2023/08/02 08:18:48;;;;;;;1.30;0.93;;;23.80;55.70;;;;;;4990291;28;20366;-62
2023/08/02 08:21:14;;;;;;;0.90;0.80;;;23.80;55.70;;;;;;4989177;28;20105;-60
2023/08/02 08:23:40;;;;;;;1.67;0.93;;;23.80;55.80;;;;;;4989017;28;20045;-62
2023/08/02 08:26:11;;;;;;;1.17;0.80;;;23.80;55.80;;;;;;4988354;28;20088;-60
2023/08/02 08:28:38;;;;;;;1.33;0.80;;;23.80;55.80;;;;;;4989135;28;20034;-60
2023/08/02 08:31:04;;;;;;;1.02;0.70;;;23.80;55.90;;;;;;4988866;28;20104;-61
2023/08/02 08:33:31;;;;;;;0.93;0.70;;;23.80;55.90;;;;;;4987024;28;20109;-60
2023/08/02 08:35:57;;;;;;;1.00;0.82;;;23.80;55.90;;;;;;4988624;28;20038;-61
2023/08/02 08:38:23;;;;;;;0.70;0.70;;;23.80;55.90;;;;;;4989705;28;20431;-61
2023/08/02 08:40:53;;;;;;;1.13;0.70;;;23.80;56.00;;;;;;4987679;28;20045;-62
2023/08/02 08:43:27;;;;;;;1.27;0.80;;;23.80;56.00;;;;;;4988645;28;20288;-62
2023/08/02 08:45:53;;;;;;;0.82;0.57;;;23.80;56.00;;;;;;4987802;28;20104;-62
2023/08/02 08:48:19;;;;;;;1.08;0.75;;;23.80;56.00;;;;;;4987628;28;20031;-61
2023/08/02 08:50:46;;;;;;;1.00;0.70;;;23.80;56.10;;;;;;4987225;28;20369;-62
2023/08/02 08:53:17;;;;;;;0.90;0.70;;;23.80;56.10;;;;;;4989478;28;20031;-61
2023/08/02 08:55:48;;;;;;;0.88;0.70;;;23.80;56.10;;;;;;4989286;28;20104;-61
2023/08/02 08:58:15;;;;;;;1.15;0.68;;;23.80;56.20;;;;;;4989316;28;20108;-61
2023/08/02 09:00:43;;;;;;;0.70;0.70;;;23.80;56.20;;;;;;4988581;28;20149;-62
2023/08/02 09:03:12;;;;;;;0.88;0.60;;;23.90;56.30;;;;;;4989165;28;20041;-61
2023/08/02 09:05:40;;;;;;;1.65;0.90;;;23.80;56.30;;;;;;4987006;28;20067;-61
2023/08/02 09:08:06;;;;;;;0.60;0.50;;;23.80;56.30;;;;;;4987311;28;20097;-61
2023/08/02 09:10:35;;;;;;;0.55;0.50;;;23.80;56.40;;;;;;4988384;28;20038;-62
2023/08/02 09:13:01;;;;;;;0.85;0.70;;;23.90;56.50;;;;;;4988933;28;20045;-60
2023/08/02 09:15:27;;;;;;;0.52;0.40;;;23.80;56.50;;;;;;4988998;28;20075;-61
2023/08/02 09:17:54;;;;;;;0.47;0.43;;;23.90;56.60;;;;;;4986217;28;20045;-61
2023/08/02 09:20:23;;;;;;;0.50;0.40;;;23.80;56.50;;;;;;4988073;28;20109;-61
2023/08/02 09:22:50;;;;;;;0.55;0.47;;;23.80;56.60;;;;;;4988918;28;20041;-63
2023/08/02 09:25:27;;;;;;;0.80;0.43;;;23.80;56.70;;;;;;4988967;28;20026;-61
2023/08/02 09:27:54;;;;;;;0.70;0.40;;;23.90;56.80;;;;;;4988365;28;20049;-61
2023/08/02 09:30:27;;;;;;;0.70;0.40;;;23.80;56.80;;;;;;4988207;28;20050;-61
2023/08/02 09:33:11;;;;;;;0.60;0.40;;;23.90;56.80;;;;;;4987095;28;20099;-61
2023/08/02 09:35:46;;;;;;;0.65;0.40;;;23.80;56.90;;;;;;4987765;28;20310;-61
2023/08/02 09:38:12;;;;;;;0.57;0.50;;;23.80;56.90;;;;;;4986045;28;20115;-60
2023/08/02 09:40:40;;;;;;;0.50;0.30;;;23.90;57.00;;;;;;4989245;28;20049;-59
2023/08/02 09:43:09;;;;;;;0.73;0.43;;;23.90;57.10;;;;;;4987039;28;20303;-61
2023/08/02 09:45:36;;;;;;;0.98;0.52;;;23.90;57.30;;;;;;4985627;28;20232;-61
2023/08/02 09:48:02;;;;;;;1.67;0.40;;;23.90;57.50;;;;;;4988018;28;20029;-61
2023/08/02 09:50:29;;;;;;;0.57;0.40;;;23.90;57.60;;;;;;4985801;28;20054;-62
2023/08/02 09:52:55;;;;;;;0.50;0.40;;;24.00;57.80;;;;;;4984792;28;20026;-61
2023/08/02 09:55:21;;;;;;;0.70;0.30;;;24.00;57.80;;;;;;4985782;28;20044;-60
2023/08/02 09:57:48;;;;;;;0.63;0.40;;;24.00;57.90;;;;;;4985484;28;20030;-62
2023/08/02 10:00:17;;;;;;;0.57;0.43;;;24.00;58.00;;;;;;4985723;28;20034;-62
2023/08/02 10:02:45;;;;;;;1.90;0.60;;;24.00;58.20;;;;;;4984886;28;20034;-63
2023/08/02 10:05:14;;;;;;;0.50;0.38;;;24.00;58.20;;;;;;4982297;28;20054;-62
2023/08/02 10:07:44;;;;;;;0.32;0.32;;;24.00;58.40;;;;;;4982385;28;20041;-62
2023/08/02 10:10:15;;;;;;;0.40;0.38;;;24.00;58.50;;;;;;4984904;28;20030;-62
2023/08/02 10:12:42;;;;;;;0.30;0.20;;;24.10;59.30;;;;;;4985085;28;20110;-61
2023/08/02 10:15:08;;;;;;;0.32;0.32;;;24.10;58.80;;;;;;4984587;28;20035;-62
2023/08/02 10:17:35;;;;;;;0.30;0.30;;;24.10;58.90;;;;;;4983670;28;20089;-62
2023/08/02 10:20:03;;;;;;;1.10;0.47;;;24.10;59.00;;;;;;4985763;28;20054;-61
2023/08/02 10:22:30;;;;;;;0.30;0.30;;;24.10;59.10;;;;;;4985841;28;20022;-63
2023/08/02 10:24:57;;;;;;;0.40;0.30;;;24.10;59.20;;;;;;4985508;28;20030;-63
2023/08/02 10:27:25;;;;;;;0.68;0.30;;;24.10;59.30;;;;;;4984166;28;20129;-63
2023/08/02 10:29:52;;;;;;;0.20;0.20;;;24.10;59.40;;;;;;4984312;28;20035;-60
2023/08/02 10:32:19;;;;;;;0.68;0.40;;;24.20;59.50;;;;;;5008179;28;20342;-62
2023/08/02 10:34:50;;;;;;;0.45;0.40;;;24.20;59.60;;;;;;4993720;28;20038;-61
2023/08/02 10:37:18;;;;;;;0.85;0.30;;;24.20;59.70;;;;;;4988376;28;20326;-62
2023/08/02 10:39:47;;;;;;;0.50;0.40;;;24.20;60.40;;;;;;4991816;28;20022;-62
2023/08/02 10:42:14;;;;;;;0.38;0.30;;;24.20;59.90;;;;;;4986233;28;20283;-61
2023/08/02 10:44:55;;;;;;;0.40;0.30;;;24.20;60.00;;;;;;4987078;28;20374;-62
2023/08/02 10:47:28;;;;;;;0.80;0.40;;;24.30;60.20;;;;;;4984165;28;20026;-61
2023/08/02 10:49:55;;;;;;;0.90;0.32;;;24.30;60.30;;;;;;4990769;28;20022;-61
2023/08/02 10:52:33;;;;;;;0.57;0.35;;;24.30;60.40;;;;;;4988117;28;20054;-62
2023/08/02 10:55:16;;;;;;;0.73;0.20;;;24.30;60.50;;;;;;4995132;28;20027;-61
2023/08/02 10:57:54;;;;;;;0.30;0.30;;;24.30;60.60;;;;;;4996095;28;20088;-62
2023/08/02 11:00:25;;;;;;;0.73;0.38;;;24.30;60.70;;;;;;4974789;28;20373;-62
2023/08/02 11:02:53;;;;;;;0.50;0.30;;;24.30;60.70;;;;;;4977570;28;20113;-61
2023/08/02 11:05:37;;;;;;;0.47;0.30;;;24.30;60.90;;;;;;4989864;28;20413;-61
2023/08/02 11:08:03;;;;;;;0.35;0.35;;;24.40;61.00;;;;;;4988221;28;20572;-62
2023/08/02 11:10:29;;;;;;;0.30;0.30;;;24.40;61.00;;;;;;4994479;28;20456;-61
2023/08/02 11:12:55;;;;;;;0.40;0.30;;;24.40;61.10;;;;;;4967554;28;20053;-62
2023/08/02 11:15:22;;;;;;;0.40;0.30;;;24.40;61.10;;;;;;4969643;28;20058;-61
2023/08/02 11:17:55;;;;;;;0.30;0.30;;;24.40;61.10;;;;;;4969169;28;20027;-61
2023/08/02 11:20:28;;;;;;;0.57;0.30;;;24.40;61.10;;;;;;4974933;28;20030;-62
2023/08/02 11:22:54;;;;;;;0.40;0.30;;;24.40;61.10;;;;;;4976142;28;20042;-63
2023/08/02 11:25:21;;;;;;;0.32;0.30;;;24.50;61.20;;;;;;4969571;28;20325;-62
2023/08/02 11:27:47;;;;;;;0.47;0.30;;;24.50;61.20;;;;;;4973105;28;20184;-62
2023/08/02 11:30:19;;;;;;;0.20;0.20;;;24.50;61.20;;;;;;4970211;28;20117;-61
2023/08/02 11:32:46;;;;;;;0.43;0.20;;;24.50;61.20;;;;;;4967511;28;20114;-61
2023/08/02 11:35:19;;;;;;;0.15;0.15;;;24.50;61.20;;;;;;4967938;28;20034;-62
2023/08/02 11:37:45;;;;;;;0.28;0.28;;;24.50;61.10;;;;;;4966869;28;20046;-65
2023/08/02 11:40:18;;;;;;;1.10;0.10;;;24.50;61.10;;;;;;4971945;28;20023;-64
2023/08/02 11:42:53;;;;;;;0.38;0.28;;;24.50;61.10;;;;;;4969477;28;20051;-64
2023/08/02 11:45:30;;;;;;;0.73;0.40;;;24.50;61.10;;;;;;4969812;28;20414;-63
2023/08/02 11:47:56;;;;;;;0.30;0.30;;;24.50;61.00;;;;;;4971747;28;20035;-63
2023/08/02 11:50:24;;;;;;;0.35;0.30;;;24.60;61.00;;;;;;4973372;28;20038;-63
2023/08/02 11:52:53;;;;;;;0.30;0.30;;;24.70;60.90;;;;;;4975244;28;20434;-63
2023/08/02 11:55:24;;;;;;;0.45;0.30;;;24.70;60.70;;;;;;4975763;28;20062;-63
2023/08/02 11:57:53;;;;;;;0.65;0.30;;;24.90;60.50;;;;;;4974488;28;20018;-62
2023/08/02 12:00:28;;;;;;;0.30;0.30;;;24.90;60.20;;;;;;4975535;28;20022;-62
2023/08/02 12:03:13;;;;;;;0.20;0.20;;;25.00;60.00;;;;;;4957977;28;20121;-62
2023/08/02 12:05:43;;;;;;;0.32;0.30;;;25.20;59.80;;;;;;4954901;28;20023;-62
2023/08/02 12:08:17;;;;;;;0.30;0.20;;;25.20;59.50;;;;;;4967543;28;20410;-62
2023/08/02 12:10:49;;;;;;;0.40;0.40;;;25.30;59.30;;;;;;4975385;28;20039;-64
2023/08/02 12:13:22;;;;;;;0.40;0.40;;;25.50;59.10;;;;;;4993961;28;20078;-62
2023/08/02 12:16:06;;;;;;;0.60;0.30;;;25.60;58.90;;;;;;4976889;28;20192;-63
2023/08/02 12:18:57;;;;;;;0.70;0.30;;;25.60;58.70;;;;;;4992044;28;20312;-63
2023/08/02 12:21:29;;;;;;;0.60;0.40;;;25.70;58.40;;;;;;4993018;28;20464;-62
2023/08/02 12:23:56;;;;;;;0.60;0.40;;;25.80;58.30;;;;;;4993957;28;20058;-63
2023/08/02 12:26:35;;;;;;;0.70;0.38;;;25.90;58.20;;;;;;4994640;28;20061;-62
2023/08/02 12:29:03;;;;;;;1.05;0.55;;;26.00;58.00;;;;;;4994044;28;20050;-63
2023/08/02 12:31:54;;;;;;;0.60;0.30;;;26.00;57.90;;;;;;4998446;28;20033;-63
2023/08/02 12:34:26;;;;;;;0.38;0.30;;;26.10;57.60;;;;;;4974857;28;20034;-61
2023/08/02 12:36:55;;;;;;;0.52;0.40;;;26.20;57.60;;;;;;4990740;28;20412;-63
2023/08/02 12:39:23;;;;;;;0.20;0.20;;;26.20;57.30;;;;;;4992539;28;20436;-62
2023/08/02 12:41:51;;;;;;;0.47;0.38;;;26.20;57.10;;;;;;4993984;28;20333;-64
2023/08/02 12:44:19;;;;;;;1.17;0.30;;;26.30;56.90;;;;;;4993725;28;20448;-65
2023/08/02 12:46:53;;;;;;;0.30;0.20;;;26.30;56.80;;;;;;4993350;28;20027;-63
2023/08/02 12:49:20;;;;;;;0.50;0.30;;;26.40;56.70;;;;;;4993542;28;20464;-64